createdAt,value
2019-01-26T00:02:05.059Z,88.73
2019-01-26T00:04:35.415Z,82.70
2019-01-26T00:07:05.792Z,70.50
2019-01-26T00:09:36.155Z,77.07
2019-01-26T00:12:06.648Z,83.93
2019-01-26T00:14:37.000Z,74.93
2019-01-26T00:17:07.352Z,70.17
2019-01-26T00:19:37.719Z,70.73
2019-01-26T00:22:08.058Z,74.17
2019-01-26T00:24:38.409Z,72.00
2019-01-26T00:27:08.835Z,68.50
2019-01-26T00:29:39.184Z,76.07
2019-01-26T00:32:09.631Z,69.50
2019-01-26T00:34:39.971Z,71.57
2019-01-26T00:37:10.431Z,72.23
2019-01-26T00:39:40.774Z,71.33
2019-01-26T00:42:11.151Z,69.83
2019-01-26T00:44:41.791Z,76.73
2019-01-26T00:47:11.487Z,64.53
2019-01-26T00:49:41.747Z,74.00
2019-01-26T00:52:11.435Z,74.67
2019-01-26T00:54:41.735Z,69.33
2019-01-26T00:57:11.427Z,71.53
2019-01-26T00:59:42.779Z,77.67
2019-01-26T01:02:13.939Z,64.97
2019-01-26T01:04:49.406Z,70.83
2019-01-26T01:07:21.787Z,67.17
2019-01-26T01:09:52.131Z,73.80
2019-01-26T01:12:25.265Z,69.30
2019-01-26T01:14:55.875Z,67.90
2019-01-26T01:17:26.215Z,75.60
2019-01-26T01:19:56.593Z,71.47
2019-01-26T01:22:27.003Z,68.57
2019-01-26T01:24:57.352Z,73.03
2019-01-26T01:27:27.731Z,67.93
2019-01-26T01:29:58.077Z,66.83
2019-01-26T01:32:28.451Z,70.83
2019-01-26T01:34:58.791Z,65.80
2019-01-26T01:37:29.139Z,67.13
2019-01-26T01:39:59.515Z,62.53
2019-01-26T01:42:29.911Z,67.10
2019-01-26T01:45:00.252Z,64.03
2019-01-26T01:47:30.624Z,66.13
2019-01-26T01:50:00.963Z,63.23
2019-01-26T01:52:31.350Z,70.87
2019-01-26T01:55:01.783Z,69.37
2019-01-26T01:57:32.488Z,74.47
2019-01-26T02:00:02.827Z,69.43
2019-01-26T02:02:33.270Z,69.80
2019-01-26T02:05:03.624Z,71.43
2019-01-26T02:07:42.127Z,66.83
2019-01-26T02:10:21.509Z,64.37
2019-01-26T02:12:55.175Z,59.53
2019-01-26T02:15:25.531Z,74.13
2019-01-26T02:17:55.925Z,60.47
2019-01-26T02:20:26.456Z,68.83
2019-01-26T02:22:56.844Z,61.37
2019-01-26T02:25:27.256Z,65.17
2019-01-26T02:27:57.652Z,64.07
2019-01-26T02:30:28.110Z,75.50
2019-01-26T02:32:58.522Z,72.80
2019-01-26T02:35:28.967Z,69.33
2019-01-26T02:37:59.306Z,67.37
2019-01-26T02:40:29.661Z,77.63
2019-01-26T02:43:00.035Z,73.53
2019-01-26T02:45:30.375Z,72.47
2019-01-26T02:48:00.719Z,78.63
2019-01-26T02:50:31.083Z,74.23
2019-01-26T02:53:01.432Z,68.50
2019-01-26T02:55:31.835Z,72.23
2019-01-26T02:58:02.198Z,69.70
2019-01-26T03:00:32.545Z,72.67
2019-01-26T03:03:02.891Z,79.77
2019-01-26T03:05:33.274Z,79.73
2019-01-26T03:08:03.679Z,73.47
2019-01-26T03:10:34.023Z,68.77
2019-01-26T03:13:04.774Z,67.80
2019-01-26T03:15:35.237Z,67.57
2019-01-26T03:18:05.684Z,61.43
2019-01-26T03:20:36.065Z,72.03
2019-01-26T03:23:06.403Z,70.90
2019-01-26T03:25:36.754Z,76.83
2019-01-26T03:28:07.270Z,71.73
2019-01-26T03:30:37.616Z,74.13
2019-01-26T03:33:08.533Z,74.17
2019-01-26T03:35:38.248Z,68.47
2019-01-26T03:38:08.498Z,69.40
2019-01-26T03:40:39.929Z,79.80
2019-01-26T03:43:10.278Z,86.97
2019-01-26T03:45:40.714Z,74.03
2019-01-26T03:48:11.135Z,66.47
2019-01-26T03:50:41.543Z,76.53
2019-01-26T03:53:11.892Z,71.77
2019-01-26T03:55:42.235Z,72.13
2019-01-26T03:58:12.904Z,72.17
2019-01-26T04:00:43.255Z,73.70
2019-01-26T04:03:13.615Z,77.07
2019-01-26T04:05:43.967Z,75.00
2019-01-26T04:08:14.335Z,66.90
2019-01-26T04:10:44.675Z,70.80
2019-01-26T04:13:14.371Z,65.57
2019-01-26T04:15:54.479Z,74.40
2019-01-26T04:18:26.756Z,63.50
2019-01-26T04:23:58.603Z,75.00
2019-01-26T04:26:28.955Z,68.60
2019-01-26T04:28:59.344Z,67.93
2019-01-26T04:31:29.692Z,81.93
2019-01-26T04:34:00.059Z,77.00
2019-01-26T04:36:30.411Z,76.03
2019-01-26T04:39:00.761Z,69.90
2019-01-26T04:41:32.751Z,73.57
2019-01-26T04:44:03.088Z,71.67
2019-01-26T04:46:33.455Z,67.87
2019-01-26T04:49:03.802Z,76.77
2019-01-26T04:51:34.251Z,72.00
2019-01-26T04:54:04.684Z,77.10
2019-01-26T04:56:35.143Z,71.63
2019-01-26T04:59:05.662Z,75.60
2019-01-26T05:01:36.120Z,72.30
2019-01-26T05:04:06.519Z,73.63
2019-01-26T05:06:36.912Z,72.73
2019-01-26T05:09:09.224Z,74.63
2019-01-26T05:11:39.609Z,75.07
2019-01-26T05:14:09.943Z,80.37
2019-01-26T05:16:40.296Z,75.17
2019-01-26T05:19:11.723Z,73.10
2019-01-26T05:21:42.071Z,78.27
2019-01-26T05:24:12.438Z,65.77
2019-01-26T05:26:42.892Z,71.70
2019-01-26T05:29:13.267Z,69.77
2019-01-26T05:31:43.613Z,69.70
2019-01-26T05:34:13.948Z,76.73
2019-01-26T05:36:44.291Z,80.20
2019-01-26T05:39:14.631Z,68.77
2019-01-26T05:41:45.004Z,76.63
2019-01-26T05:44:16.863Z,80.97
2019-01-26T05:46:47.380Z,72.10
2019-01-26T05:49:36.751Z,75.03
2019-01-26T05:52:07.168Z,78.57
2019-01-26T05:54:37.583Z,81.23
2019-01-26T05:57:07.962Z,66.87
2019-01-26T05:59:38.304Z,70.80
2019-01-26T06:02:08.721Z,66.67
2019-01-26T06:04:39.135Z,81.77
2019-01-26T06:07:09.515Z,81.40
2019-01-26T06:09:39.861Z,77.77
2019-01-26T06:12:10.384Z,73.53
2019-01-26T06:14:40.724Z,70.53
2019-01-26T06:17:11.132Z,74.33
2019-01-26T06:19:41.472Z,78.23
2019-01-26T06:22:11.843Z,77.20
2019-01-26T06:24:42.200Z,63.47
2019-01-26T06:27:12.552Z,77.93
2019-01-26T06:29:42.238Z,78.13
2019-01-26T06:32:12.499Z,81.23
2019-01-26T06:34:42.195Z,71.73
2019-01-26T06:37:12.587Z,76.20
2019-01-26T06:39:42.955Z,75.67
2019-01-26T06:42:13.803Z,68.60
2019-01-26T06:44:44.415Z,73.90
2019-01-26T06:47:16.112Z,73.20
2019-01-26T06:49:46.683Z,73.80
2019-01-26T06:52:16.514Z,86.10
2019-01-26T06:55:02.717Z,73.40
2019-01-26T06:57:37.389Z,79.60
2019-01-26T07:00:16.919Z,79.20
2019-01-26T07:02:47.781Z,80.73
2019-01-26T07:05:28.411Z,74.07
2019-01-26T07:07:59.294Z,86.07
2019-01-26T07:10:29.886Z,83.67
2019-01-26T07:13:00.276Z,70.97
2019-01-26T07:15:32.199Z,77.23
2019-01-26T07:18:09.166Z,64.23
2019-01-26T07:20:38.588Z,80.97
2019-01-26T07:23:16.238Z,81.13
2019-01-26T07:25:51.864Z,77.10
2019-01-26T07:28:23.976Z,73.10
2019-01-26T07:30:54.765Z,79.17
2019-01-26T07:33:32.952Z,83.87
2019-01-26T07:36:03.799Z,78.23
2019-01-26T07:38:34.975Z,73.07
2019-01-26T07:41:04.834Z,82.87
2019-01-26T07:43:35.109Z,74.37
2019-01-26T07:46:06.156Z,78.20
2019-01-26T07:48:36.075Z,78.33
2019-01-26T07:51:06.770Z,77.67
2019-01-26T07:53:37.223Z,71.97
2019-01-26T07:56:07.859Z,80.37
2019-01-26T07:58:38.482Z,81.87
2019-01-26T08:01:09.035Z,86.73
2019-01-26T08:03:40.081Z,78.07
2019-01-26T08:06:11.087Z,77.50
2019-01-26T08:08:41.470Z,72.33
2019-01-26T08:11:11.879Z,75.90
2019-01-26T08:13:42.597Z,83.70
2019-01-26T08:16:15.418Z,73.93
2019-01-26T08:18:45.111Z,68.27
2019-01-26T08:21:15.559Z,74.23
2019-01-26T08:23:45.941Z,75.57
2019-01-26T08:26:16.283Z,78.63
2019-01-26T08:28:46.044Z,68.07
2019-01-26T08:31:16.295Z,76.70
2019-01-26T08:33:46.674Z,83.10
2019-01-26T08:36:17.039Z,71.57
2019-01-26T08:38:46.847Z,75.87
2019-01-26T08:41:18.712Z,74.53
2019-01-26T08:43:49.077Z,66.67
2019-01-26T08:46:18.859Z,69.10
2019-01-26T08:48:49.168Z,81.43
2019-01-26T08:51:18.870Z,73.17
2019-01-26T08:53:49.231Z,71.00
2019-01-26T08:56:18.959Z,60.97
2019-01-26T08:58:49.229Z,75.33
2019-01-26T09:01:19.049Z,69.50
2019-01-26T09:04:01.111Z,66.50
2019-01-26T09:06:35.045Z,69.93
2019-01-26T09:09:09.903Z,74.17
2019-01-26T09:11:40.253Z,64.40
2019-01-26T09:14:10.707Z,71.23
2019-01-26T09:16:41.059Z,64.17
2019-01-26T09:19:10.760Z,68.93
2019-01-26T09:21:41.102Z,68.63
2019-01-26T09:24:12.554Z,67.17
2019-01-26T09:26:42.891Z,67.03
2019-01-26T09:29:13.271Z,57.50
2019-01-26T09:31:44.080Z,71.17
2019-01-26T09:34:14.455Z,59.90
2019-01-26T09:36:45.215Z,64.43
2019-01-26T09:39:15.866Z,59.20
2019-01-26T09:41:46.375Z,68.80
2019-01-26T09:44:16.736Z,72.70
2019-01-26T09:46:47.616Z,68.97
2019-01-26T09:49:18.076Z,62.90
2019-01-26T09:51:50.979Z,59.23
2019-01-26T09:54:21.335Z,65.33
2019-01-26T09:56:51.703Z,63.00
2019-01-26T09:59:23.950Z,66.03
2019-01-26T10:01:56.575Z,70.83
2019-01-26T10:04:27.548Z,71.80
2019-01-26T10:06:57.904Z,52.33
2019-01-26T10:09:28.307Z,63.13
2019-01-26T10:11:58.650Z,70.80
2019-01-26T10:14:29.339Z,61.77
2019-01-26T10:16:59.687Z,64.60
2019-01-26T10:19:30.148Z,64.30
2019-01-26T10:22:00.507Z,67.07
2019-01-26T10:24:30.851Z,62.27
2019-01-26T10:27:00.553Z,65.20
2019-01-26T10:29:30.910Z,65.07
2019-01-26T10:32:01.543Z,60.97
2019-01-26T10:34:33.735Z,65.07
2019-01-26T10:37:08.931Z,64.60
2019-01-26T10:39:39.499Z,65.77
2019-01-26T10:42:30.403Z,66.40
2019-01-26T10:45:00.819Z,60.63
2019-01-26T10:47:30.727Z,67.23
2019-01-26T10:50:01.235Z,67.10
2019-01-26T10:52:31.655Z,65.17
2019-01-26T10:55:02.452Z,68.37
2019-01-26T10:57:32.707Z,64.93
2019-01-26T11:00:03.687Z,81.83
2019-01-26T11:02:37.540Z,72.23
2019-01-26T11:05:19.167Z,70.67
2019-01-26T11:07:56.831Z,63.10
2019-01-26T11:10:27.268Z,63.93
2019-01-26T11:12:57.200Z,63.13
2019-01-26T11:15:27.595Z,68.30
2019-01-26T11:17:57.912Z,77.13
2019-01-26T11:20:28.904Z,65.37
2019-01-26T11:22:59.671Z,66.23
2019-01-26T11:25:29.486Z,66.60
2019-01-26T11:28:00.024Z,70.33
2019-01-26T11:30:32.055Z,73.47
2019-01-26T11:33:02.487Z,71.03
2019-01-26T11:35:33.071Z,87.10
2019-01-26T11:38:06.156Z,78.80
2019-01-26T11:40:36.229Z,75.33
2019-01-26T11:43:06.547Z,70.87
2019-01-26T11:45:55.587Z,65.60
2019-01-26T11:48:29.363Z,64.30
2019-01-26T11:51:04.883Z,72.23
2019-01-26T11:53:35.436Z,61.30
2019-01-26T11:56:17.990Z,64.90
2019-01-26T11:58:48.387Z,60.23
2019-01-26T12:01:36.343Z,68.53
2019-01-26T12:04:28.399Z,55.20
2019-01-26T12:07:10.758Z,57.73
2019-01-26T12:09:41.208Z,67.40
2019-01-26T12:12:11.560Z,70.73
2019-01-26T12:14:41.940Z,64.10
2019-01-26T12:17:12.491Z,76.10
2019-01-26T12:19:42.864Z,73.13
2019-01-26T12:22:12.933Z,74.30
2019-01-26T12:24:43.364Z,66.33
2019-01-26T12:27:13.718Z,71.97
2019-01-26T12:29:44.223Z,67.43
2019-01-26T12:32:17.192Z,59.93
2019-01-26T12:34:47.768Z,68.40
2019-01-26T12:37:18.120Z,68.83
2019-01-26T12:39:48.455Z,70.00
2019-01-26T12:42:18.828Z,61.87
2019-01-26T12:44:49.334Z,76.47
2019-01-26T12:47:19.993Z,68.50
2019-01-26T12:49:50.499Z,65.83
2019-01-26T12:52:20.979Z,74.33
2019-01-26T12:54:54.029Z,81.73
2019-01-26T12:57:25.575Z,77.03
2019-01-26T12:59:55.443Z,73.00
2019-01-26T13:02:25.249Z,84.27
2019-01-26T13:04:55.524Z,80.53
2019-01-26T13:07:26.049Z,71.27
2019-01-26T13:09:55.735Z,80.97
2019-01-26T13:12:25.335Z,85.47
2019-01-26T13:14:56.041Z,85.37
2019-01-26T13:17:26.422Z,74.37
2019-01-26T13:19:56.818Z,79.47
2019-01-26T13:22:26.583Z,90.17
2019-01-26T13:24:57.359Z,85.67
2019-01-26T13:27:27.776Z,76.43
2019-01-26T13:29:57.481Z,77.73
2019-01-26T13:32:27.351Z,76.60
2019-01-26T13:34:57.003Z,71.03
2019-01-26T13:37:27.286Z,80.57
2019-01-26T13:39:57.070Z,80.17
2019-01-26T13:42:27.384Z,98.60
2019-01-26T13:44:57.163Z,104.93
2019-01-26T13:47:26.804Z,85.43
2019-01-26T13:49:57.183Z,103.03
2019-01-26T13:52:26.875Z,102.80
2019-01-26T13:54:57.579Z,190.50
2019-01-26T13:57:27.923Z,102.80
2019-01-26T13:59:58.432Z,94.67
2019-01-26T14:02:28.883Z,77.63
2019-01-26T14:04:58.743Z,82.80
2019-01-26T14:07:29.053Z,84.40
2019-01-26T14:09:58.956Z,80.63
2019-01-26T14:12:29.408Z,87.10
2019-01-26T14:14:59.366Z,82.33
2019-01-26T14:17:29.859Z,86.17
2019-01-26T14:20:00.235Z,86.10
2019-01-26T14:22:31.522Z,91.50
2019-01-26T14:25:01.957Z,86.70
2019-01-26T14:27:32.375Z,92.33
2019-01-26T14:30:02.720Z,93.13
2019-01-26T14:32:33.283Z,86.10
2019-01-26T14:35:04.043Z,93.40
2019-01-26T14:37:34.659Z,76.20
2019-01-26T14:40:05.374Z,98.47
2019-01-26T14:42:36.304Z,85.03
2019-01-26T14:45:08.192Z,88.03
2019-01-26T14:47:38.678Z,91.23
2019-01-26T14:50:11.683Z,89.27
2019-01-26T14:52:42.048Z,77.60
2019-01-26T14:55:17.103Z,85.13
2019-01-26T14:57:48.075Z,100.40
2019-01-26T15:00:27.541Z,87.27
2019-01-26T15:02:58.075Z,91.57
2019-01-26T15:05:29.487Z,98.77
2019-01-26T15:08:00.607Z,92.50
2019-01-26T15:10:30.968Z,99.20
2019-01-26T15:13:00.736Z,106.97
2019-01-26T15:15:30.996Z,153.27
2019-01-26T15:18:01.651Z,116.80
2019-01-26T15:20:34.623Z,136.87
2019-01-26T15:23:05.903Z,111.67
2019-01-26T15:25:36.631Z,90.23
2019-01-26T15:28:08.246Z,94.00
2019-01-26T15:30:41.175Z,85.97
2019-01-26T15:33:11.956Z,99.23
2019-01-26T15:35:41.684Z,90.53
2019-01-26T15:38:12.680Z,112.43
2019-01-26T15:40:43.095Z,142.20
2019-01-26T15:43:13.536Z,124.23
2019-01-26T15:45:46.488Z,104.73
2019-01-26T15:48:16.840Z,94.03
2019-01-26T15:50:47.188Z,106.23
2019-01-26T15:53:17.572Z,115.10
2019-01-26T15:55:47.915Z,188.97
2019-01-26T15:58:18.771Z,157.03
2019-01-26T16:00:49.191Z,126.60
2019-01-26T16:03:20.917Z,120.30
2019-01-26T16:05:51.598Z,110.00
2019-01-26T16:08:21.958Z,99.07
2019-01-26T16:10:51.656Z,114.53
2019-01-26T16:13:22.003Z,100.77
2019-01-26T16:15:54.188Z,152.67
2019-01-26T16:18:24.835Z,180.03
2019-01-26T16:20:55.635Z,166.63
2019-01-26T16:23:26.083Z,211.33
2019-01-26T16:25:56.555Z,205.33
2019-01-26T16:28:26.355Z,228.00
2019-01-26T16:30:56.689Z,256.33
2019-01-26T16:33:27.380Z,233.97
2019-01-26T16:35:59.424Z,159.40
2019-01-26T16:38:30.347Z,124.07
2019-01-26T16:41:01.029Z,139.73
2019-01-26T16:43:31.859Z,185.50
2019-01-26T16:46:02.567Z,151.43
2019-01-26T16:48:33.279Z,133.57
2019-01-26T16:51:03.841Z,198.67
2019-01-26T16:53:34.364Z,223.37
2019-01-26T16:56:06.413Z,311.00
2019-01-26T16:58:37.191Z,199.63
2019-01-26T17:01:08.103Z,130.63
2019-01-26T17:03:38.731Z,166.27
2019-01-26T17:06:08.927Z,302.50
2019-01-26T17:08:39.294Z,430.97
2019-01-26T17:11:11.468Z,410.63
2019-01-26T17:13:42.280Z,270.20
2019-01-26T17:16:12.631Z,139.50
2019-01-26T17:18:46.241Z,128.03
2019-01-26T17:21:14.672Z,136.50
2019-01-26T17:23:44.267Z,220.97
2019-01-26T17:26:14.235Z,257.87
2019-01-26T17:28:43.829Z,165.80
2019-01-26T17:31:13.506Z,134.87
2019-01-26T17:33:43.187Z,162.00
2019-01-26T17:36:12.851Z,148.07
2019-01-26T17:38:42.448Z,140.37
2019-01-26T17:41:12.151Z,142.03
2019-01-26T17:43:42.488Z,139.83
2019-01-26T17:46:12.921Z,132.27
2019-01-26T17:48:43.389Z,160.47
2019-01-26T17:51:13.895Z,151.43
2019-01-26T17:53:44.610Z,154.73
2019-01-26T17:56:14.607Z,131.47
2019-01-26T17:58:44.987Z,130.77
2019-01-26T18:01:16.243Z,124.67
2019-01-26T18:03:46.775Z,128.60
2019-01-26T18:06:17.295Z,135.97
2019-01-26T18:08:47.650Z,131.27
2019-01-26T18:11:18.206Z,162.73
2019-01-26T18:13:48.652Z,168.27
2019-01-26T18:16:18.439Z,140.63
2019-01-26T18:18:48.703Z,148.17
2019-01-26T18:21:19.039Z,141.93
2019-01-26T18:23:49.444Z,155.07
2019-01-26T18:26:19.791Z,178.73
2019-01-26T18:28:50.144Z,193.93
2019-01-26T18:31:20.487Z,167.57
2019-01-26T18:33:51.895Z,144.33
2019-01-26T18:36:21.495Z,176.57
2019-01-26T18:38:51.755Z,164.83
2019-01-26T18:41:21.554Z,166.67
2019-01-26T18:43:51.811Z,164.27
2019-01-26T18:46:22.229Z,198.07
2019-01-26T18:48:52.646Z,222.97
2019-01-26T18:51:22.986Z,174.30
2019-01-26T18:53:53.336Z,325.03
2019-01-26T18:56:24.148Z,253.63
2019-01-26T18:58:54.539Z,235.43
2019-01-26T19:01:24.242Z,201.53
2019-01-26T19:04:30.523Z,270.37
2019-01-26T19:07:00.939Z,200.87
2019-01-26T19:09:31.467Z,180.23
2019-01-26T19:12:01.170Z,174.60
2019-01-26T19:14:31.887Z,167.80
2019-01-26T19:17:02.428Z,151.83
2019-01-26T19:19:32.863Z,155.60
2019-01-26T19:22:02.571Z,161.70
2019-01-26T19:24:32.888Z,166.13
2019-01-26T19:27:03.677Z,165.23
2019-01-26T19:29:33.943Z,156.63
2019-01-26T19:32:05.482Z,206.30
2019-01-26T19:34:36.225Z,229.27
2019-01-26T19:37:09.435Z,213.30
2019-01-26T19:39:37.980Z,220.93
2019-01-26T19:42:08.395Z,217.77
2019-01-26T19:44:39.040Z,193.43
2019-01-26T19:47:09.543Z,183.63
2019-01-26T19:49:39.891Z,193.37
2019-01-26T19:52:10.371Z,168.73
2019-01-26T19:54:40.811Z,167.90
2019-01-26T19:57:10.495Z,164.60
2019-01-26T19:59:40.801Z,155.57
2019-01-26T20:02:11.239Z,139.37
2019-01-26T20:04:42.047Z,155.40
2019-01-26T20:07:12.460Z,183.87
2019-01-26T20:09:42.923Z,180.13
2019-01-26T20:12:13.407Z,160.70
2019-01-26T20:14:44.094Z,163.87
2019-01-26T20:17:13.919Z,178.13
2019-01-26T20:19:44.339Z,172.73
2019-01-26T20:22:18.241Z,173.57
2019-01-26T20:24:49.927Z,193.63
2019-01-26T20:27:20.695Z,180.97
2019-01-26T20:29:51.011Z,174.97
2019-01-26T20:32:21.367Z,217.43
2019-01-26T20:34:51.750Z,197.80
2019-01-26T20:37:22.185Z,198.00
2019-01-26T20:39:52.635Z,185.53
2019-01-26T20:42:23.063Z,231.23
2019-01-26T20:44:53.602Z,202.33
2019-01-26T20:47:24.188Z,206.67
2019-01-26T20:49:54.729Z,178.77
2019-01-26T20:52:25.073Z,187.87
2019-01-26T20:54:54.770Z,233.40
2019-01-26T20:57:25.123Z,206.53
2019-01-26T20:59:55.471Z,166.53
2019-01-26T21:02:25.307Z,205.80
2019-01-26T21:04:55.892Z,169.43
2019-01-26T21:07:26.275Z,183.33
2019-01-26T21:09:56.667Z,192.63
2019-01-26T21:12:26.391Z,167.93
2019-01-26T21:14:56.703Z,173.00
2019-01-26T21:17:27.157Z,178.90
2019-01-26T21:19:58.896Z,180.80
2019-01-26T21:22:28.980Z,190.53
2019-01-26T21:24:59.396Z,186.23
2019-01-26T21:27:29.092Z,166.03
2019-01-26T21:30:00.336Z,195.17
2019-01-26T21:32:30.903Z,256.50
2019-01-26T21:35:00.587Z,250.10
2019-01-26T21:37:30.203Z,209.07
2019-01-26T21:40:00.463Z,200.20
2019-01-26T21:42:31.545Z,179.57
2019-01-26T21:45:03.120Z,211.87
2019-01-26T21:47:33.987Z,242.63
2019-01-26T21:50:04.787Z,228.30
2019-01-26T21:52:40.960Z,213.73
2019-01-26T21:55:10.099Z,241.47
2019-01-26T21:57:40.443Z,211.87
2019-01-26T22:00:14.447Z,241.13
2019-01-26T22:02:44.788Z,235.03
2019-01-26T22:05:14.583Z,228.67
2019-01-26T22:07:44.835Z,248.33
2019-01-26T22:10:16.864Z,245.13
2019-01-26T22:12:47.207Z,219.83
2019-01-26T22:15:19.551Z,236.97
2019-01-26T22:17:49.910Z,237.43
2019-01-26T22:20:20.464Z,235.70
2019-01-26T22:22:51.034Z,291.30
2019-01-26T22:25:20.895Z,245.03
2019-01-26T22:27:51.004Z,242.53
2019-01-26T22:30:26.309Z,258.53
2019-01-26T22:32:56.659Z,250.47
2019-01-26T22:35:27.010Z,257.40
2019-01-26T22:37:57.559Z,258.83
2019-01-26T22:40:28.299Z,271.90
2019-01-26T22:42:58.655Z,263.90
2019-01-26T22:45:28.998Z,270.17
2019-01-26T22:47:59.419Z,264.70
2019-01-26T22:50:30.247Z,295.63
2019-01-26T22:53:00.707Z,269.23
2019-01-26T22:55:32.120Z,289.20
2019-01-26T22:58:02.511Z,300.60
2019-01-26T23:01:07.423Z,295.63
2019-01-26T23:04:32.179Z,265.80
2019-01-26T23:08:01.643Z,291.83
2019-01-26T23:11:08.811Z,275.27
2019-01-26T23:14:03.563Z,289.23
2019-01-26T23:17:13.439Z,336.70
2019-01-26T23:20:36.880Z,359.07
2019-01-26T23:23:37.163Z,332.50
2019-01-26T23:26:51.162Z,390.30
2019-01-26T23:30:18.914Z,338.33
2019-01-26T23:32:49.267Z,425.90
2019-01-26T23:35:19.647Z,353.90
2019-01-26T23:37:49.998Z,363.40
2019-01-26T23:40:20.463Z,381.20
2019-01-26T23:42:50.811Z,433.87
2019-01-26T23:45:21.697Z,368.83
2019-01-26T23:47:52.039Z,439.20
2019-01-26T23:50:22.417Z,336.03
2019-01-26T23:52:52.756Z,442.60
2019-01-26T23:55:23.103Z,397.37
2019-01-26T23:57:53.451Z,389.73
